sensor_id;sensor_type;location;lat;lon;timestamp;pressure;altitude;pressure_sealevel;temperature;humidity
46638;BME280;32365;46.938;7.390;2022-10-26T17:45:09;95935.56;;;13.62;100.00
46638;BME280;32365;46.938;7.390;2022-10-26T17:47:36;95947.69;;;13.57;100.00
46638;BME280;32365;46.938;7.390;2022-10-26T17:50:02;95945.94;;;13.45;100.00
46638;BME280;32365;46.938;7.390;2022-10-26T17:52:29;95950.69;;;13.48;100.00
46638;BME280;32365;46.938;7.390;2022-10-26T17:54:55;95948.72;;;13.55;100.00
46638;BME280;32365;46.938;7.390;2022-10-26T17:57:22;95947.84;;;13.38;100.00
46638;BME280;32365;46.938;7.390;2022-10-26T17:59:48;95945.97;;;13.21;100.00
46638;BME280;32365;46.938;7.390;2022-10-26T18:02:16;95962.13;;;13.23;100.00
46638;BME280;32365;46.938;7.390;2022-10-26T18:04:43;95957.63;;;13.19;100.00
46638;BME280;32365;46.938;7.390;2022-10-26T18:07:10;95958.75;;;13.11;100.00
46638;BME280;32365;46.938;7.390;2022-10-26T18:09:37;95960.34;;;13.12;100.00
46638;BME280;32365;46.938;7.390;2022-10-26T18:12:03;95962.38;;;13.22;100.00
46638;BME280;32365;46.938;7.390;2022-10-26T18:14:30;95962.69;;;13.26;100.00
46638;BME280;32365;46.938;7.390;2022-10-26T18:16:56;95967.78;;;13.20;100.00
46638;BME280;32365;46.938;7.390;2022-10-26T18:19:24;95980.69;;;13.03;100.00
46638;BME280;32365;46.938;7.390;2022-10-26T18:21:51;95976.63;;;12.96;100.00
46638;BME280;32365;46.938;7.390;2022-10-26T18:24:17;95979.72;;;12.92;100.00
46638;BME280;32365;46.938;7.390;2022-10-26T18:26:43;95976.31;;;12.92;100.00
46638;BME280;32365;46.938;7.390;2022-10-26T18:29:11;95974.63;;;12.86;100.00
46638;BME280;32365;46.938;7.390;2022-10-26T18:31:38;95977.78;;;12.76;100.00
46638;BME280;32365;46.938;7.390;2022-10-26T18:34:05;95973.25;;;12.83;100.00
46638;BME280;32365;46.938;7.390;2022-10-26T18:36:32;95975.53;;;12.80;100.00
46638;BME280;32365;46.938;7.390;2022-10-26T18:38:59;95969.19;;;12.87;100.00
46638;BME280;32365;46.938;7.390;2022-10-26T18:41:25;95973.59;;;12.87;100.00
46638;BME280;32365;46.938;7.390;2022-10-26T18:43:52;95979.13;;;12.78;100.00
46638;BME280;32365;46.938;7.390;2022-10-26T18:46:20;95977.31;;;12.91;100.00
46638;BME280;32365;46.938;7.390;2022-10-26T18:48:47;95979.34;;;12.89;100.00
46638;BME280;32365;46.938;7.390;2022-10-26T18:51:14;95983.31;;;12.91;100.00
46638;BME280;32365;46.938;7.390;2022-10-26T18:53:43;95980.38;;;12.88;100.00
46638;BME280;32365;46.938;7.390;2022-10-26T18:56:10;95984.00;;;12.75;100.00
46638;BME280;32365;46.938;7.390;2022-10-26T18:58:38;95990.75;;;12.64;100.00
46638;BME280;32365;46.938;7.390;2022-10-26T19:01:06;95992.25;;;12.60;100.00
46638;BME280;32365;46.938;7.390;2022-10-26T19:03:33;95997.91;;;12.69;100.00
46638;BME280;32365;46.938;7.390;2022-10-26T19:06:06;95994.03;;;12.59;100.00
46638;BME280;32365;46.938;7.390;2022-10-26T19:08:32;95994.38;;;12.63;100.00
46638;BME280;32365;46.938;7.390;2022-10-26T19:11:01;95995.94;;;12.52;100.00
46638;BME280;32365;46.938;7.390;2022-10-26T19:13:27;95991.19;;;12.49;100.00
46638;BME280;32365;46.938;7.390;2022-10-26T19:15:59;96000.91;;;12.42;100.00
46638;BME280;32365;46.938;7.390;2022-10-26T19:18:26;95997.06;;;12.44;100.00
46638;BME280;32365;46.938;7.390;2022-10-26T19:20:56;95994.47;;;12.32;100.00
46638;BME280;32365;46.938;7.390;2022-10-26T19:23:22;95989.69;;;12.18;100.00
46638;BME280;32365;46.938;7.390;2022-10-26T19:25:52;95987.63;;;12.08;100.00
46638;BME280;32365;46.938;7.390;2022-10-26T19:28:20;95992.69;;;12.03;100.00
46638;BME280;32365;46.938;7.390;2022-10-26T19:30:47;95993.34;;;11.98;100.00
46638;BME280;32365;46.938;7.390;2022-10-26T19:33:13;95996.34;;;11.95;100.00
46638;BME280;32365;46.938;7.390;2022-10-26T19:35:39;95999.47;;;12.04;100.00
46638;BME280;32365;46.938;7.390;2022-10-26T19:38:06;95999.13;;;12.00;100.00
46638;BME280;32365;46.938;7.390;2022-10-26T19:40:32;96002.41;;;12.07;100.00
46638;BME280;32365;46.938;7.390;2022-10-26T19:42:59;96006.91;;;12.00;100.00
46638;BME280;32365;46.938;7.390;2022-10-26T19:45:26;96007.13;;;11.80;100.00
46638;BME280;32365;46.938;7.390;2022-10-26T19:47:54;96004.47;;;11.86;100.00
46638;BME280;32365;46.938;7.390;2022-10-26T19:50:20;95999.00;;;11.76;100.00
46638;BME280;32365;46.938;7.390;2022-10-26T19:52:47;96008.72;;;11.81;100.00
46638;BME280;32365;46.938;7.390;2022-10-26T19:55:13;96009.38;;;11.76;100.00
46638;BME280;32365;46.938;7.390;2022-10-26T19:57:40;96008.50;;;11.82;100.00
46638;BME280;32365;46.938;7.390;2022-10-26T20:00:07;96008.31;;;11.65;100.00
46638;BME280;32365;46.938;7.390;2022-10-26T20:02:35;96011.31;;;11.62;100.00
46638;BME280;32365;46.938;7.390;2022-10-26T20:05:01;96018.16;;;11.75;100.00
46638;BME280;32365;46.938;7.390;2022-10-26T20:07:28;96010.31;;;11.63;100.00
46638;BME280;32365;46.938;7.390;2022-10-26T20:09:54;96019.38;;;11.42;100.00
46638;BME280;32365;46.938;7.390;2022-10-26T20:12:21;96023.81;;;11.53;100.00
46638;BME280;32365;46.938;7.390;2022-10-26T20:14:47;96020.84;;;11.50;100.00
46638;BME280;32365;46.938;7.390;2022-10-26T20:17:14;96020.84;;;11.50;100.00
46638;BME280;32365;46.938;7.390;2022-10-26T20:19:41;96022.38;;;11.39;100.00
46638;BME280;32365;46.938;7.390;2022-10-26T20:22:08;96020.72;;;11.45;100.00
46638;BME280;32365;46.938;7.390;2022-10-26T20:24:34;96021.22;;;11.35;100.00
46638;BME280;32365;46.938;7.390;2022-10-26T20:27:01;96030.94;;;11.39;100.00
46638;BME280;32365;46.938;7.390;2022-10-26T20:29:27;96034.81;;;11.49;100.00
46638;BME280;32365;46.938;7.390;2022-10-26T20:31:54;96035.28;;;11.46;100.00
46638;BME280;32365;46.938;7.390;2022-10-26T20:34:22;96035.03;;;11.47;100.00
46638;BME280;32365;46.938;7.390;2022-10-26T20:36:50;96042.13;;;11.40;100.00
46638;BME280;32365;46.938;7.390;2022-10-26T20:39:16;96036.63;;;11.30;100.00
46638;BME280;32365;46.938;7.390;2022-10-26T20:41:43;96036.34;;;11.38;100.00
46638;BME280;32365;46.938;7.390;2022-10-26T20:44:11;96041.03;;;11.29;100.00
46638;BME280;32365;46.938;7.390;2022-10-26T20:46:42;96047.56;;;11.32;100.00
46638;BME280;32365;46.938;7.390;2022-10-26T20:49:08;96046.94;;;11.36;100.00
46638;BME280;32365;46.938;7.390;2022-10-26T20:51:37;96051.38;;;11.29;100.00
46638;BME280;32365;46.938;7.390;2022-10-26T20:54:10;96060.16;;;11.28;100.00
46638;BME280;32365;46.938;7.390;2022-10-26T20:56:39;96052.03;;;11.24;100.00
46638;BME280;32365;46.938;7.390;2022-10-26T20:59:08;96054.03;;;11.22;100.00
46638;BME280;32365;46.938;7.390;2022-10-26T21:01:38;96060.31;;;11.33;100.00
46638;BME280;32365;46.938;7.390;2022-10-26T21:04:05;96055.41;;;11.25;100.00
46638;BME280;32365;46.938;7.390;2022-10-26T21:06:32;96063.13;;;11.32;100.00
46638;BME280;32365;46.938;7.390;2022-10-26T21:09:04;96065.63;;;11.38;100.00
46638;BME280;32365;46.938;7.390;2022-10-26T21:11:32;96062.03;;;11.39;100.00
46638;BME280;32365;46.938;7.390;2022-10-26T21:13:58;96071.13;;;11.30;100.00
46638;BME280;32365;46.938;7.390;2022-10-26T21:16:27;96066.00;;;11.23;100.00
46638;BME280;32365;46.938;7.390;2022-10-26T21:18:53;96065.34;;;11.09;100.00
46638;BME280;32365;46.938;7.390;2022-10-26T21:21:20;96059.75;;;11.31;100.00
46638;BME280;32365;46.938;7.390;2022-10-26T21:23:46;96060.84;;;11.42;100.00
46638;BME280;32365;46.938;7.390;2022-10-26T21:26:13;96056.72;;;11.34;100.00
46638;BME280;32365;46.938;7.390;2022-10-26T21:28:41;96057.56;;;11.28;100.00
